Time;durP1;ratioP1;P1;durP2;ratioP2;P2;SDS_P1;SDS_P2;PMS_P1;PMS_P2;Temp;Humidity;BMP_temperature;BMP_pressure;BME280_temperature;BME280_humidity;BME280_pressure;Samples;Min_cycle;Max_cycle;Signal;HPM_P1;HPM_P2
2021/10/07 00:01:28;;;;;;;;;2.00;2.00;;;;;24.08;42.21;102474.97;5075231;28;45538;-68
2021/10/07 00:03:53;;;;;;;;;2.50;2.25;;;;;24.14;42.18;102492.97;5073996;28;45674;-69
2021/10/07 00:06:19;;;;;;;;;2.00;2.00;;;;;24.10;41.92;102480.97;5076661;28;46316;-69
2021/10/07 00:08:44;;;;;;;;;4.00;3.75;;;;;24.10;41.99;102483.63;5073714;28;45455;-69
2021/10/07 00:11:12;;;;;;;;;5.00;2.00;;;;;24.14;41.96;102490.31;5074916;28;45437;-69
2021/10/07 00:13:38;;;;;;;;;2.00;2.00;;;;;24.09;42.23;102489.09;5074769;28;45517;-69
2021/10/07 00:16:03;;;;;;;;;2.00;2.00;;;;;24.11;42.39;102487.97;5074899;28;46360;-69
2021/10/07 00:18:34;;;;;;;;;2.00;2.00;;;;;24.12;42.11;102487.00;5075273;28;46068;-69
2021/10/07 00:21:00;;;;;;;;;2.00;2.00;;;;;24.13;41.88;102483.31;5074290;28;45537;-69
2021/10/07 00:23:27;;;;;;;;;2.75;2.00;;;;;24.13;42.05;102485.97;5074375;28;45478;-69
2021/10/07 00:25:52;;;;;;;;;4.25;3.50;;;;;24.06;41.74;102479.63;5074654;28;45359;-69
2021/10/07 00:28:17;;;;;;;;;3.00;3.00;;;;;24.14;41.86;102479.69;5074867;28;45427;-69
2021/10/07 00:30:43;;;;;;;;;3.00;3.00;;;;;24.13;41.85;102483.31;5074960;28;45295;-69
2021/10/07 00:33:22;;;;;;;;;2.00;2.00;;;;;24.14;41.90;102492.97;5076396;28;45421;-69
2021/10/07 00:36:01;;;;;;;;;2.75;2.75;;;;;24.14;41.84;102490.31;5072992;28;46291;-69
2021/10/07 00:41:10;;;;;;;;;3.00;1.50;;;;;24.12;41.67;102488.81;5074451;28;45405;-69
2021/10/07 00:43:35;;;;;;;;;1.75;1.75;;;;;24.13;41.40;102487.78;5073130;28;45391;-68
2021/10/07 00:46:01;;;;;;;;;2.50;1.75;;;;;24.11;41.79;102487.13;5072237;28;46198;-69
2021/10/07 00:48:27;;;;;;;;;2.25;2.25;;;;;24.09;41.56;102486.44;5075235;28;45479;-69
2021/10/07 00:50:52;;;;;;;;;2.75;2.75;;;;;24.12;41.39;102492.31;5075361;28;45470;-69
2021/10/07 00:53:19;;;;;;;;;2.00;1.25;;;;;24.12;41.56;102496.78;5074632;28;45454;-69
2021/10/07 00:55:47;;;;;;;;;3.00;3.00;;;;;24.12;41.72;102494.13;5074208;28;47265;-69
2021/10/07 00:58:13;;;;;;;;;2.50;2.50;;;;;24.11;41.78;102495.94;5074384;28;45629;-69
2021/10/07 01:00:39;;;;;;;;;2.75;2.75;;;;;24.10;41.96;102494.25;5074140;28;45403;-69
2021/10/07 01:03:04;;;;;;;;;1.50;1.50;;;;;24.09;41.93;102491.75;5075991;28;45338;-69
2021/10/07 01:05:30;;;;;;;;;2.00;2.00;;;;;24.09;41.50;102489.09;5074088;28;46099;-69
2021/10/07 01:07:56;;;;;;;;;2.00;2.00;;;;;24.07;41.75;102492.75;5073122;28;45521;-69
2021/10/07 01:10:21;;;;;;;;;3.00;3.00;;;;;24.07;41.70;102495.41;5074158;28;45356;-68
2021/10/07 01:12:47;;;;;;;;;2.25;2.00;;;;;24.07;42.13;102499.91;5057097;28;45498;-69
2021/10/07 01:15:12;;;;;;;;;2.75;2.75;;;;;24.06;41.82;102500.88;5076065;28;45418;-69
2021/10/07 01:17:38;;;;;;;;;2.75;2.75;;;;;24.05;41.57;102493.88;5055370;28;45618;-69
2021/10/07 01:20:06;;;;;;;;;3.00;2.00;;;;;24.06;41.74;102500.88;5074082;28;45605;-69
2021/10/07 01:22:32;;;;;;;;;3.50;2.00;;;;;24.05;42.03;102497.38;5057128;28;45488;-69
2021/10/07 01:25:00;;;;;;;;;4.00;3.00;;;;;24.05;41.81;102502.69;5073934;28;45459;-69
2021/10/07 01:27:27;;;;;;;;;3.75;3.00;;;;;24.05;41.61;102501.84;5075329;28;45429;-69
2021/10/07 01:29:55;;;;;;;;;2.00;1.00;;;;;24.04;42.10;102500.22;5074838;28;45413;-68
2021/10/07 01:32:21;;;;;;;;;2.00;2.00;;;;;24.03;41.50;102504.69;5073314;28;45570;-69
2021/10/07 01:34:47;;;;;;;;;4.00;2.25;;;;;24.04;41.96;102508.19;5073620;28;45355;-69
2021/10/07 01:37:12;;;;;;;;;3.75;2.50;;;;;24.04;41.58;102511.69;5073848;28;45573;-69
2021/10/07 01:39:38;;;;;;;;;1.00;1.00;;;;;24.03;41.84;102512.66;5074033;28;45362;-69
2021/10/07 01:42:03;;;;;;;;;3.00;3.00;;;;;23.95;41.59;102500.13;5075624;28;45510;-69
2021/10/07 01:44:30;;;;;;;;;2.75;2.75;;;;;24.04;42.02;102508.19;5074664;28;46190;-69
2021/10/07 01:46:55;;;;;;;;;3.00;1.00;;;;;24.04;42.12;102508.19;5076892;28;45390;-69
2021/10/07 01:49:21;;;;;;;;;2.50;2.50;;;;;24.02;41.55;102508.31;5077441;28;45349;-69
2021/10/07 01:51:47;;;;;;;;;3.00;1.25;;;;;24.04;41.98;102508.19;5076354;28;45454;-69
2021/10/07 01:54:12;;;;;;;;;5.00;3.25;;;;;24.02;41.53;102510.97;5078568;28;45981;-69
2021/10/07 01:56:38;;;;;;;;;1.50;1.50;;;;;24.03;41.61;102515.31;5077132;28;45261;-69
2021/10/07 01:59:05;;;;;;;;;2.00;2.00;;;;;24.04;41.69;102517.00;5077312;28;45538;-69
2021/10/07 02:01:31;;;;;;;;;2.25;2.25;;;;;24.03;41.98;102510.00;5075137;28;45515;-69
2021/10/07 02:03:56;;;;;;;;;2.25;2.25;;;;;24.04;41.51;102506.38;5076803;28;46258;-69
2021/10/07 02:06:22;;;;;;;;;2.50;2.50;;;;;24.04;41.29;102514.34;5078410;28;45399;-69
2021/10/07 02:08:47;;;;;;;;;3.50;3.00;;;;;24.05;41.84;102509.84;5078375;28;45384;-69
2021/10/07 02:11:12;;;;;;;;;2.00;2.00;;;;;24.05;41.56;102510.69;5077140;28;45766;-69
2021/10/07 02:13:38;;;;;;;;;2.00;2.00;;;;;23.92;41.38;102481.81;5076692;28;46264;-69
2021/10/07 02:16:04;;;;;;;;;3.00;2.00;;;;;24.05;41.39;102501.84;5076901;28;45781;-69
2021/10/07 02:18:29;;;;;;;;;3.50;3.00;;;;;24.01;41.41;102492.53;5077964;28;45393;-69
2021/10/07 02:20:55;;;;;;;;;2.00;2.00;;;;;24.05;41.22;102502.69;5077847;28;45439;-69
2021/10/07 02:23:20;;;;;;;;;1.25;1.25;;;;;24.05;41.64;102500.03;5076736;28;45375;-69
2021/10/07 02:25:46;;;;;;;;;1.25;1.25;;;;;24.03;41.57;102491.38;5076584;28;45473;-68
2021/10/07 02:28:13;;;;;;;;;2.75;2.75;;;;;24.04;41.87;102497.56;5076997;28;45439;-69
2021/10/07 02:30:39;;;;;;;;;3.25;2.00;;;;;24.05;41.60;102496.53;5076444;28;45480;-69
2021/10/07 02:33:05;;;;;;;;;2.25;2.00;;;;;24.03;41.45;102510.00;5076890;28;47080;-69
2021/10/07 02:35:30;;;;;;;;;2.00;2.00;;;;;24.02;41.83;102497.69;5076495;28;45291;-69
2021/10/07 02:37:55;;;;;;;;;5.00;2.25;;;;;24.02;41.24;102492.38;5076760;28;45568;-69
2021/10/07 02:40:21;;;;;;;;;2.00;2.00;;;;;24.02;41.46;102496.88;5075048;28;45401;-69
2021/10/07 02:42:46;;;;;;;;;2.00;2.00;;;;;24.02;41.75;102497.69;5076278;28;46096;-69
2021/10/07 02:45:17;;;;;;;;;4.00;2.25;;;;;24.02;41.47;102504.84;5077999;28;45517;-69
2021/10/07 02:47:43;;;;;;;;;4.00;3.00;;;;;24.01;41.21;102504.00;5076332;28;45464;-69
2021/10/07 02:50:10;;;;;;;;;3.00;2.00;;;;;24.00;41.67;102506.81;5076495;28;45332;-69
2021/10/07 02:52:36;;;;;;;;;3.75;3.75;;;;;24.00;41.42;102504.97;5075563;28;45443;-68
2021/10/07 02:55:03;;;;;;;;;2.50;2.50;;;;;23.96;41.51;102493.84;5076162;28;45295;-69
2021/10/07 02:57:29;;;;;;;;;2.50;2.00;;;;;23.95;41.62;102491.31;5077212;28;45443;-69
2021/10/07 02:59:54;;;;;;;;;2.00;2.00;;;;;23.99;41.39;102502.50;5076676;28;45568;-69
2021/10/07 03:02:19;;;;;;;;;3.00;2.00;;;;;24.00;41.72;102504.97;5076121;28;46470;-69
2021/10/07 03:04:45;;;;;;;;;3.50;2.00;;;;;23.99;41.39;102499.84;5076137;28;45669;-69
2021/10/07 03:07:11;;;;;;;;;2.75;2.00;;;;;23.90;41.32;102488.28;5076237;28;46261;-69
2021/10/07 03:09:40;;;;;;;;;2.00;2.00;;;;;23.98;41.56;102509.63;5076540;28;45488;-69
2021/10/07 03:12:06;;;;;;;;;3.00;2.00;;;;;23.85;41.32;102494.91;5076457;28;45391;-69
2021/10/07 03:14:32;;;;;;;;;2.00;1.75;;;;;23.97;41.92;102513.25;5075487;28;45581;-69
2021/10/07 03:16:57;;;;;;;;;3.50;3.50;;;;;23.92;41.60;102508.41;5058580;28;45418;-69
2021/10/07 03:19:22;;;;;;;;;2.00;2.00;;;;;23.95;41.50;102516.09;5074528;28;45390;-70
2021/10/07 03:21:48;;;;;;;;;3.25;3.00;;;;;23.96;41.74;102514.28;5075790;28;47081;-69
2021/10/07 03:24:13;;;;;;;;;2.50;2.50;;;;;23.96;41.28;102515.09;5077764;28;45398;-69
2021/10/07 03:26:39;;;;;;;;;2.25;2.00;;;;;23.96;41.44;102514.28;5075869;28;45572;-68
2021/10/07 03:29:05;;;;;;;;;2.00;2.00;;;;;23.97;41.12;102513.25;5075428;28;45455;-69
2021/10/07 03:31:30;;;;;;;;;2.00;2.00;;;;;23.98;41.77;102514.09;5074492;28;45418;-69
2021/10/07 03:33:55;;;;;;;;;3.50;2.00;;;;;23.99;40.95;102526.41;5075646;28;45391;-69
2021/10/07 03:36:21;;;;;;;;;1.25;1.25;;;;;23.99;41.01;102521.94;5077387;28;45336;-69
2021/10/07 03:38:46;;;;;;;;;3.25;2.75;;;;;23.98;41.20;102522.91;5076205;28;45475;-69
2021/10/07 03:41:11;;;;;;;;;2.75;2.50;;;;;23.99;41.00;102521.94;5075412;28;46276;-69
2021/10/07 03:43:37;;;;;;;;;2.50;2.50;;;;;23.99;41.10;102515.78;5075118;28;45563;-69
2021/10/07 03:46:02;;;;;;;;;2.25;2.25;;;;;23.99;41.30;102519.28;5075787;28;45297;-69
2021/10/07 03:48:28;;;;;;;;;5.25;3.00;;;;;23.98;41.34;102522.91;5076381;28;45464;-69
2021/10/07 03:50:54;;;;;;;;;5.50;2.25;;;;;23.99;41.24;102523.75;5075000;28;46068;-69
2021/10/07 03:53:19;;;;;;;;;2.00;2.00;;;;;23.99;41.22;102527.25;5075354;28;45296;-69
2021/10/07 03:55:44;;;;;;;;;5.00;3.00;;;;;23.99;41.27;102527.25;5075446;28;45275;-69
2021/10/07 03:58:10;;;;;;;;;1.75;1.00;;;;;23.99;41.04;102523.75;5073599;28;45535;-69
2021/10/07 04:00:35;;;;;;;;;3.25;3.00;;;;;23.99;41.30;102524.59;5074842;28;45451;-69
2021/10/07 04:03:02;;;;;;;;;2.00;1.00;;;;;23.99;41.22;102531.75;5077044;28;45567;-69
2021/10/07 04:05:28;;;;;;;;;2.00;1.00;;;;;23.96;41.40;102535.53;5075364;28;45390;-68
2021/10/07 04:07:53;;;;;;;;;3.00;3.00;;;;;23.98;41.41;102533.56;5074534;28;45741;-69
2021/10/07 04:10:19;;;;;;;;;2.00;2.00;;;;;23.97;41.54;102529.22;5075065;28;45883;-69
2021/10/07 04:12:44;;;;;;;;;1.25;1.25;;;;;23.96;40.96;102533.72;5074803;28;45943;-69
2021/10/07 04:15:10;;;;;;;;;1.50;1.50;;;;;23.93;41.54;102519.88;5077072;28;45529;-69
2021/10/07 04:17:35;;;;;;;;;6.00;3.00;;;;;23.94;41.01;102526.88;5075002;28;45482;-69
2021/10/07 04:20:01;;;;;;;;;1.25;1.00;;;;;23.82;41.35;102507.66;5074725;28;45565;-69
2021/10/07 04:22:26;;;;;;;;;4.50;2.00;;;;;23.95;41.21;102528.53;5074668;28;45456;-69
2021/10/07 04:24:52;;;;;;;;;4.00;2.00;;;;;23.93;41.36;102528.69;5075239;28;45371;-69
2021/10/07 04:27:17;;;;;;;;;2.75;2.75;;;;;23.92;41.39;102524.34;5075976;28;45595;-69
2021/10/07 04:29:43;;;;;;;;;1.00;1.00;;;;;23.91;41.08;102525.38;5072982;28;46296;-69
2021/10/07 04:32:08;;;;;;;;;3.25;3.25;;;;;23.91;41.32;102522.72;5073862;28;45417;-69
2021/10/07 04:34:34;;;;;;;;;2.00;2.00;;;;;23.91;41.31;102524.53;5074767;28;45569;-69
2021/10/07 04:36:59;;;;;;;;;3.00;3.00;;;;;23.88;41.16;102527.47;5073236;28;45371;-68
2021/10/07 04:39:25;;;;;;;;;1.75;1.75;;;;;23.91;40.98;102529.84;5074714;28;47167;-69
2021/10/07 04:41:51;;;;;;;;;5.00;3.25;;;;;23.90;41.52;102534.31;5074412;28;45392;-69
2021/10/07 04:44:16;;;;;;;;;2.00;2.00;;;;;23.89;41.68;102529.97;5074678;28;45354;-69
2021/10/07 04:46:42;;;;;;;;;3.00;3.00;;;;;23.90;41.30;102530.81;5054724;28;45635;-69
2021/10/07 04:49:07;;;;;;;;;2.75;2.00;;;;;23.90;41.12;102530.81;5074472;28;45985;-69
2021/10/07 04:51:33;;;;;;;;;2.75;2.75;;;;;23.81;41.56;102508.66;5075142;28;45606;-69
2021/10/07 04:53:58;;;;;;;;;1.50;1.50;;;;;23.89;41.38;102529.97;5076089;28;45295;-69
2021/10/07 04:56:23;;;;;;;;;2.75;2.00;;;;;23.90;41.59;102531.66;5074069;28;45431;-69
2021/10/07 04:58:49;;;;;;;;;3.50;2.00;;;;;23.90;40.99;102529.00;5074159;28;47121;-69
2021/10/07 05:01:17;;;;;;;;;1.00;1.00;;;;;23.91;41.20;102533.34;5074013;28;45296;-69
2021/10/07 05:03:43;;;;;;;;;2.00;2.00;;;;;23.90;40.93;102528.16;5074565;28;45532;-69
2021/10/07 05:06:08;;;;;;;;;2.00;2.00;;;;;23.92;41.54;102534.16;5076086;28;45383;-68
2021/10/07 05:08:34;;;;;;;;;3.00;2.00;;;;;23.93;40.93;102541.16;5072722;28;46118;-69
2021/10/07 05:10:59;;;;;;;;;2.00;2.00;;;;;23.93;41.22;102543.81;5073448;28;45832;-69
2021/10/07 05:13:24;;;;;;;;;2.00;2.00;;;;;23.89;40.94;102532.63;5074348;28;45374;-69
2021/10/07 05:15:50;;;;;;;;;3.75;2.50;;;;;23.94;41.04;102534.84;5073032;28;45651;-69
2021/10/07 05:18:17;;;;;;;;;3.75;3.50;;;;;23.93;41.30;102541.16;5075523;28;46163;-69
2021/10/07 05:20:45;;;;;;;;;2.00;2.00;;;;;23.92;40.98;102540.31;5073126;28;45399;-68
2021/10/07 05:23:11;;;;;;;;;3.00;3.00;;;;;23.94;41.38;102543.63;5073871;28;45474;-68
2021/10/07 05:25:36;;;;;;;;;4.00;3.50;;;;;23.94;41.33;102540.97;5073404;28;45436;-68
2021/10/07 05:28:01;;;;;;;;;6.75;4.00;;;;;23.95;41.32;102544.47;5074105;28;46538;-68
2021/10/07 05:30:28;;;;;;;;;4.00;3.00;;;;;23.96;41.07;102546.16;5054243;28;45522;-68
2021/10/07 05:32:54;;;;;;;;;3.00;3.00;;;;;23.94;41.06;102538.31;5074843;28;45329;-68
2021/10/07 05:35:19;;;;;;;;;3.75;3.25;;;;;23.96;41.29;102540.84;5072680;28;45459;-69
2021/10/07 05:37:45;;;;;;;;;2.50;2.50;;;;;23.94;41.57;102543.63;5071732;28;46003;-69
2021/10/07 05:40:11;;;;;;;;;4.25;3.00;;;;;23.88;41.39;102530.97;5054974;28;45600;-69
2021/10/07 05:42:37;;;;;;;;;2.75;2.00;;;;;23.94;41.55;102546.31;5074357;28;45559;-69
2021/10/07 05:45:03;;;;;;;;;4.00;3.00;;;;;23.94;41.05;102548.97;5074148;27;45427;-69
2021/10/07 05:47:28;;;;;;;;;3.75;3.75;;;;;23.93;41.81;102560.59;5073890;27;45519;-69
2021/10/07 05:49:53;;;;;;;;;4.00;3.50;;;;;23.84;41.49;102545.53;5073214;28;45729;-69
2021/10/07 05:52:19;;;;;;;;;4.25;3.75;;;;;23.92;41.45;102556.25;5073445;28;45484;-69
2021/10/07 05:54:44;;;;;;;;;3.75;3.75;;;;;23.85;41.55;102544.56;5073045;28;45368;-69
2021/10/07 05:57:10;;;;;;;;;4.00;4.00;;;;;23.91;41.68;102559.91;5074283;28;45465;-69
2021/10/07 05:59:36;;;;;;;;;4.25;4.25;;;;;23.93;41.37;102555.28;5073099;28;45521;-68
2021/10/07 06:02:01;;;;;;;;;4.25;3.00;;;;;23.92;41.16;102556.25;5073041;28;45414;-68
2021/10/07 06:04:26;;;;;;;;;4.00;4.00;;;;;23.92;41.86;102552.75;5073233;28;45485;-69
2021/10/07 06:06:52;;;;;;;;;2.75;1.50;;;;;23.91;41.43;102554.59;5073446;28;45920;-68
2021/10/07 06:09:17;;;;;;;;;4.25;3.25;;;;;23.91;41.50;102559.06;5075106;28;45496;-68
2021/10/07 06:11:42;;;;;;;;;2.50;2.50;;;;;23.92;41.24;102560.72;5073322;28;45285;-68
2021/10/07 06:14:08;;;;;;;;;3.75;3.75;;;;;23.92;41.90;102566.06;5056573;28;45422;-67
2021/10/07 06:16:38;;;;;;;;;5.00;3.25;;;;;23.93;41.16;102565.06;5072884;27;46586;-67
2021/10/07 06:19:06;;;;;;;;;7.25;4.00;;;;;23.94;41.43;102570.22;5073512;28;45937;-68
2021/10/07 06:21:32;;;;;;;;;3.00;3.00;;;;;23.94;41.64;102578.19;5074029;28;45431;-68
2021/10/07 06:23:58;;;;;;;;;7.00;4.00;;;;;23.93;41.22;102578.38;5074168;28;45555;-67
2021/10/07 06:26:23;;;;;;;;;5.25;5.00;;;;;23.93;41.33;102581.03;5073307;28;45934;-68
2021/10/07 06:28:49;;;;;;;;;4.50;3.75;;;;;23.91;41.61;102580.34;5072671;28;45344;-67
2021/10/07 06:31:16;;;;;;;;;5.50;5.25;;;;;23.92;41.49;102580.19;5075329;28;45405;-67
2021/10/07 06:33:41;;;;;;;;;8.75;5.50;;;;;23.93;41.35;102576.53;5058145;28;45315;-67
2021/10/07 06:36:07;;;;;;;;;8.00;5.00;;;;;23.92;41.36;102576.69;5076593;28;46042;-67
2021/10/07 06:38:32;;;;;;;;;6.00;5.75;;;;;23.92;41.19;102582.84;5076514;28;45565;-67
2021/10/07 06:40:58;;;;;;;;;9.50;4.00;;;;;23.93;41.78;102576.53;5076602;28;45521;-67
2021/10/07 06:43:23;;;;;;;;;6.00;6.00;;;;;23.93;41.29;102584.53;5076626;28;45567;-67
2021/10/07 06:45:50;;;;;;;;;6.75;6.50;;;;;23.93;41.41;102589.84;5060303;28;46273;-67
2021/10/07 06:48:16;;;;;;;;;7.75;5.50;;;;;23.93;41.13;102587.19;5078276;28;45406;-67
2021/10/07 06:50:42;;;;;;;;;7.00;5.00;;;;;23.94;41.53;102591.50;5076198;28;45357;-68
2021/10/07 06:53:08;;;;;;;;;8.25;5.75;;;;;23.94;41.25;102596.81;5076331;28;45507;-67
2021/10/07 06:55:34;;;;;;;;;5.75;5.50;;;;;23.90;41.46;102589.28;5076082;28;46335;-67
2021/10/07 06:57:59;;;;;;;;;8.75;5.25;;;;;23.93;41.51;102592.50;5076330;28;45534;-67
2021/10/07 07:00:25;;;;;;;;;10.25;6.00;;;;;23.91;41.23;102594.47;5077476;28;45474;-67
2021/10/07 07:02:52;;;;;;;;;7.75;4.00;;;;;23.94;40.92;102593.34;5076883;28;45268;-68
2021/10/07 07:05:17;;;;;;;;;7.75;6.25;;;;;23.94;41.25;102596.81;5073934;28;45565;-68
2021/10/07 07:07:43;;;;;;;;;5.50;5.50;;;;;23.94;41.61;102598.66;5075867;27;45457;-67
2021/10/07 07:10:16;;;;;;;;;8.25;5.00;;;;;23.82;41.04;102582.91;5076319;28;45394;-67
2021/10/07 07:12:42;;;;;;;;;9.50;5.25;;;;;23.92;40.97;102600.59;5076065;28;45319;-67
2021/10/07 07:15:08;;;;;;;;;6.75;6.50;;;;;23.90;41.58;102598.09;5076536;28;47378;-67
2021/10/07 07:17:33;;;;;;;;;6.50;4.75;;;;;23.91;41.31;102602.44;5075769;28;46866;-67
2021/10/07 07:20:00;;;;;;;;;5.00;5.00;;;;;23.84;41.34;102596.88;5075373;28;45274;-67
2021/10/07 07:22:26;;;;;;;;;9.75;5.75;;;;;23.90;41.35;102606.09;5076039;28;45425;-67
2021/10/07 07:24:51;;;;;;;;;6.00;6.00;;;;;23.91;41.22;102604.25;5075899;28;45447;-67
2021/10/07 07:27:17;;;;;;;;;5.00;5.00;;;;;23.91;41.15;102613.09;5077775;28;45416;-68
2021/10/07 07:29:42;;;;;;;;;5.75;5.00;;;;;23.81;41.35;102593.69;5075774;28;45341;-67
2021/10/07 07:32:08;;;;;;;;;7.50;6.00;;;;;23.90;41.21;102607.91;5075800;28;45605;-68
2021/10/07 07:34:34;;;;;;;;;6.00;6.00;;;;;23.88;41.01;102604.56;5075356;28;46154;-67
2021/10/07 07:36:59;;;;;;;;;7.75;6.25;;;;;23.91;41.22;102609.59;5075528;28;45559;-67
2021/10/07 07:39:25;;;;;;;;;7.00;6.50;;;;;23.87;41.18;102603.72;5077229;28;45353;-68
2021/10/07 07:41:50;;;;;;;;;6.75;6.75;;;;;23.89;41.53;102614.22;5075216;28;45310;-67
2021/10/07 07:44:16;;;;;;;;;9.75;6.50;;;;;23.80;41.19;102603.50;5073624;28;46141;-67
2021/10/07 07:46:41;;;;;;;;;8.00;6.50;;;;;23.90;41.52;102618.53;5075176;28;45308;-67
2021/10/07 07:49:07;;;;;;;;;11.75;8.25;;;;;23.89;41.23;102619.53;5075268;28;45860;-67
2021/10/07 07:51:32;;;;;;;;;10.00;8.00;;;;;23.85;41.49;102611.00;5076385;28;45292;-68
2021/10/07 07:53:58;;;;;;;;;6.50;6.00;;;;;23.88;41.59;102612.53;5075005;28;45454;-67
2021/10/07 07:56:23;;;;;;;;;8.75;6.00;;;;;23.82;41.36;102616.63;5075268;28;45465;-67
2021/10/07 07:58:49;;;;;;;;;6.75;5.25;;;;;23.88;41.01;102617.84;5075371;28;45264;-68
2021/10/07 08:01:14;;;;;;;;;7.75;7.00;;;;;23.88;41.16;102612.53;5075186;28;45519;-67
2021/10/07 08:03:40;;;;;;;;;7.00;6.00;;;;;23.88;41.50;102610.72;5074721;28;48105;-68
2021/10/07 08:06:05;;;;;;;;;9.00;7.50;;;;;23.87;40.90;102611.69;5076926;28;45382;-68
2021/10/07 08:08:30;;;;;;;;;8.25;6.25;;;;;23.87;40.93;102614.34;5075123;28;45363;-68
2021/10/07 08:10:56;;;;;;;;;6.00;6.00;;;;;23.88;41.24;102612.53;5075118;28;45436;-68
2021/10/07 08:13:21;;;;;;;;;9.00;7.75;;;;;23.90;41.20;102614.06;5055066;28;46176;-68
2021/10/07 08:15:48;;;;;;;;;8.50;7.75;;;;;23.83;41.07;102603.19;5075023;28;45555;-68
2021/10/07 08:18:15;;;;;;;;;6.50;5.25;;;;;23.91;41.28;102622.88;5076531;28;45415;-68
2021/10/07 08:20:41;;;;;;;;;13.25;7.25;;;;;23.91;41.35;102622.88;5074922;28;45496;-68
2021/10/07 08:23:07;;;;;;;;;10.00;8.50;;;;;23.91;41.01;102628.19;5072817;28;47786;-67
2021/10/07 08:25:32;;;;;;;;;11.00;9.00;;;;;23.89;41.31;102630.97;5074449;28;45294;-68
2021/10/07 08:27:58;;;;;;;;;10.00;8.75;;;;;23.91;41.02;102634.34;5074192;28;45237;-68
2021/10/07 08:30:23;;;;;;;;;13.00;9.00;;;;;23.90;40.82;102637.97;5076695;28;45253;-68
2021/10/07 08:32:48;;;;;;;;;8.75;8.00;;;;;23.93;41.33;102645.66;5073323;28;46477;-68
2021/10/07 08:35:14;;;;;;;;;8.00;7.00;;;;;23.93;41.45;102642.16;5074402;28;45533;-68
2021/10/07 08:37:40;;;;;;;;;9.00;8.75;;;;;23.80;41.19;102627.41;5074834;28;45578;-68
2021/10/07 08:40:09;;;;;;;;;10.50;9.25;;;;;23.90;41.24;102642.47;5074937;28;45435;-68
2021/10/07 08:42:39;;;;;;;;;10.00;7.00;;;;;23.88;41.31;102639.13;5074799;28;47263;-68
2021/10/07 08:45:06;;;;;;;;;10.00;7.00;;;;;23.90;40.97;102640.66;5074598;28;45542;-68
2021/10/07 08:47:32;;;;;;;;;7.50;7.50;;;;;23.91;41.28;102644.97;5074156;28;45391;-68
2021/10/07 08:49:57;;;;;;;;;7.75;7.75;;;;;23.92;41.36;102649.28;5074471;28;45431;-68
2021/10/07 08:52:23;;;;;;;;;10.25;7.50;;;;;23.91;41.42;102644.97;5074370;28;45951;-68
2021/10/07 08:54:48;;;;;;;;;7.25;5.75;;;;;23.91;41.11;102644.13;5074062;28;45373;-68
2021/10/07 08:57:14;;;;;;;;;9.50;7.00;;;;;23.81;41.06;102633.56;5076360;28;45564;-68
2021/10/07 08:59:40;;;;;;;;;8.75;7.25;;;;;23.91;41.39;102644.13;5074091;27;45566;-68
2021/10/07 09:02:07;;;;;;;;;9.75;7.75;;;;;23.43;41.31;102573.31;5072060;28;46209;-68
2021/10/07 09:04:35;;;;;;;;;7.00;7.00;;;;;23.89;41.16;102649.59;5074055;28;45538;-68
2021/10/07 09:07:10;;;;;;;;;12.50;8.50;;;;;23.88;40.84;102653.25;5074263;28;45325;-68
2021/10/07 09:09:39;;;;;;;;;12.25;8.00;;;;;23.83;41.40;102643.06;5074801;28;45313;-68
2021/10/07 09:12:14;;;;;;;;;10.25;8.00;;;;;23.87;41.30;102654.22;5074169;28;46149;-68
2021/10/07 09:14:44;;;;;;;;;9.75;7.00;;;;;23.87;41.33;102656.03;5073824;28;45467;-68
2021/10/07 09:17:12;;;;;;;;;9.25;7.50;;;;;23.81;41.25;102642.34;5073477;28;45474;-68
2021/10/07 09:19:40;;;;;;;;;8.00;7.50;;;;;23.86;40.93;102652.56;5073978;28;45470;-67
2021/10/07 09:22:20;;;;;;;;;13.75;9.25;;;;;23.78;41.16;102645.34;5073920;28;45380;-67
2021/10/07 09:24:48;;;;;;;;;8.00;8.00;;;;;23.87;41.28;102653.38;5073797;28;45596;-68
2021/10/07 09:27:23;;;;;;;;;9.75;7.50;;;;;23.84;41.52;102657.16;5057756;28;45387;-67
2021/10/07 09:29:52;;;;;;;;;9.00;6.50;;;;;23.85;41.42;102665.00;5073977;28;45649;-68
2021/10/07 09:32:24;;;;;;;;;10.50;8.00;;;;;23.86;40.81;102657.88;5073230;28;46049;-67
2021/10/07 09:34:51;;;;;;;;;8.50;7.00;;;;;23.85;41.08;102649.06;5073726;28;45327;-68
2021/10/07 09:37:22;;;;;;;;;9.75;7.25;;;;;23.87;41.38;102645.41;5073834;28;45348;-67
2021/10/07 09:40:03;;;;;;;;;11.75;8.50;;;;;23.86;41.45;102641.94;5072725;28;45356;-67
2021/10/07 09:42:34;;;;;;;;;3.50;1.25;;;;;23.88;41.44;102641.78;5071328;28;45455;-67
2021/10/07 09:45:18;;;;;;;;;10.00;7.50;;;;;23.88;40.79;102645.28;5074843;28;45428;-67
2021/10/07 09:47:47;;;;;;;;;11.25;8.25;;;;;23.89;41.46;102648.78;5073578;28;45386;-67
2021/10/07 09:50:25;;;;;;;;;10.00;8.25;;;;;23.84;41.28;102638.56;5072145;28;45501;-67
2021/10/07 09:53:07;;;;;;;;;8.25;6.50;;;;;23.91;41.49;102654.78;5073335;28;45362;-68
2021/10/07 09:55:36;;;;;;;;;11.25;9.00;;;;;23.90;41.28;102653.94;5073496;28;45578;-67
2021/10/07 09:58:22;;;;;;;;;8.50;7.00;;;;;23.84;41.17;102639.41;5073701;28;45418;-67
2021/10/07 10:00:47;;;;;;;;;14.00;8.50;;;;;23.91;40.93;102655.63;5073024;28;45432;-67
2021/10/07 10:03:14;;;;;;;;;11.00;10.00;;;;;23.92;41.11;102659.94;5075127;28;46015;-67
2021/10/07 10:05:41;;;;;;;;;9.00;7.50;;;;;23.90;41.32;102643.31;5074521;28;45245;-67
2021/10/07 10:08:10;;;;;;;;;8.00;8.00;;;;;23.94;40.75;102662.47;5076980;28;45522;-67
2021/10/07 10:10:38;;;;;;;;;9.00;6.75;;;;;23.93;41.03;102661.63;5077078;28;45519;-67
2021/10/07 10:13:05;;;;;;;;;9.25;7.75;;;;;23.93;40.71;102656.31;5076645;28;46525;-67
2021/10/07 10:15:30;;;;;;;;;10.00;8.75;;;;;23.91;41.22;102655.63;5076719;28;46091;-67
2021/10/07 10:17:56;;;;;;;;;11.75;6.75;;;;;23.92;41.11;102653.78;5078006;28;45469;-67
2021/10/07 10:20:26;;;;;;;;;11.75;7.50;;;;;23.91;41.19;102654.78;5075413;28;47799;-68
2021/10/07 10:22:58;;;;;;;;;8.75;7.50;;;;;23.91;40.85;102652.97;5076525;28;46343;-67
2021/10/07 10:25:25;;;;;;;;;9.75;7.25;;;;;23.91;41.30;102652.13;5076732;28;45512;-67
2021/10/07 10:27:54;;;;;;;;;12.00;8.00;;;;;23.91;40.80;102657.44;5059395;28;45344;-67
2021/10/07 10:30:42;;;;;;;;;7.50;5.50;;;;;23.90;41.26;102645.13;5074537;28;45378;-67
2021/10/07 10:33:26;;;;;;;;;8.50;7.50;;;;;23.91;41.06;102652.13;5077254;28;46062;-67
2021/10/07 10:35:52;;;;;;;;;7.75;7.00;;;;;23.90;41.14;102653.09;5075528;28;45929;-67
2021/10/07 10:38:18;;;;;;;;;8.50;7.50;;;;;23.89;40.80;102649.59;5076410;28;45297;-67
2021/10/07 10:40:43;;;;;;;;;8.75;8.25;;;;;23.88;41.11;102649.75;5076544;28;45277;-67
2021/10/07 10:43:17;;;;;;;;;5.75;5.25;;;;;23.90;41.45;102655.75;5076159;28;46082;-67
2021/10/07 10:45:46;;;;;;;;;7.50;7.00;;;;;23.90;41.13;102659.25;5076483;28;45680;-67
2021/10/07 10:48:11;;;;;;;;;8.00;7.50;;;;;23.83;41.06;102643.06;5078204;28;45451;-67
2021/10/07 10:50:37;;;;;;;;;10.00;9.25;;;;;23.89;40.65;102652.25;5076418;28;45546;-68
2021/10/07 10:53:21;;;;;;;;;8.75;8.00;;;;;23.90;41.25;102653.94;5076334;28;45477;-67
2021/10/07 10:55:49;;;;;;;;;10.00;5.00;;;;;23.91;41.20;102647.63;5076207;28;45491;-67
2021/10/07 10:58:16;;;;;;;;;6.50;6.00;;;;;23.91;40.80;102649.47;5074549;28;45515;-67
2021/10/07 11:00:44;;;;;;;;;8.00;7.25;;;;;23.90;41.22;102645.13;5075804;28;45603;-67
2021/10/07 11:03:13;;;;;;;;;10.00;8.00;;;;;23.91;41.05;102644.13;5076926;28;47375;-67
2021/10/07 11:06:04;;;;;;;;;7.25;7.25;;;;;23.92;40.94;102646.63;5075732;28;45344;-67
2021/10/07 11:08:31;;;;;;;;;7.50;7.25;;;;;23.87;41.02;102640.94;5074584;28;45525;-67
2021/10/07 11:10:59;;;;;;;;;10.25;5.50;;;;;23.92;41.19;102643.13;5057715;28;45659;-68
2021/10/07 11:13:30;;;;;;;;;8.75;6.25;;;;;23.92;40.85;102648.47;5075561;28;47215;-67
2021/10/07 11:16:01;;;;;;;;;11.25;8.00;;;;;23.92;40.85;102646.63;5076022;28;45553;-67
2021/10/07 11:18:33;;;;;;;;;11.75;6.25;;;;;23.87;41.38;102635.63;5076256;28;45289;-67
2021/10/07 11:21:11;;;;;;;;;9.25;7.75;;;;;23.93;41.13;102642.16;5076989;28;45430;-67
2021/10/07 11:23:37;;;;;;;;;9.50;9.00;;;;;23.94;41.29;102642.00;5075620;28;46365;-68
2021/10/07 11:26:03;;;;;;;;;11.75;7.00;;;;;23.94;40.67;102636.69;5075509;28;45428;-68